createdAt,value
2022-11-30T00:02:09.139Z,101559.80
2022-11-30T00:07:12.157Z,101554.40
2022-11-30T00:12:15.030Z,101549.80
2022-11-30T00:17:17.947Z,101547.40
2022-11-30T00:22:20.899Z,101548.80
2022-11-30T00:27:23.894Z,101556.40
2022-11-30T00:32:28.510Z,101551.80
2022-11-30T00:37:31.508Z,101550.00
2022-11-30T00:42:34.568Z,101556.20
2022-11-30T00:47:37.583Z,101549.40
2022-11-30T00:52:40.508Z,101553.60
2022-11-30T00:57:43.434Z,101546.60
2022-11-30T01:02:46.528Z,101556.00
2022-11-30T01:07:49.565Z,101553.00
2022-11-30T01:12:53.679Z,101553.20
2022-11-30T01:18:00.231Z,101559.80
2022-11-30T01:23:03.154Z,101554.40
2022-11-30T01:28:06.466Z,101554.00
2022-11-30T01:33:09.466Z,101556.80
2022-11-30T01:38:12.408Z,101555.40
2022-11-30T01:43:20.236Z,101552.60
2022-11-30T01:48:23.169Z,101543.60
2022-11-30T01:53:26.150Z,101546.20
2022-11-30T01:58:30.775Z,101544.60
2022-11-30T02:03:41.620Z,101548.60
2022-11-30T02:08:44.980Z,101549.20
2022-11-30T02:14:02.449Z,101548.20
2022-11-30T02:19:14.712Z,101556.80
2022-11-30T02:25:01.299Z,101553.60
2022-11-30T02:30:23.708Z,101552.60
2022-11-30T02:35:34.282Z,101555.40
2022-11-30T02:40:37.281Z,101558.40
2022-11-30T02:46:14.142Z,101567.40
2022-11-30T02:51:23.092Z,101570.80
2022-11-30T02:56:26.376Z,101569.60
2022-11-30T03:01:29.492Z,101555.40
2022-11-30T03:06:32.424Z,101564.00
2022-11-30T03:11:35.499Z,101570.00
2022-11-30T03:16:38.798Z,101574.00
2022-11-30T03:21:41.728Z,101579.80
2022-11-30T03:26:44.678Z,101577.60
2022-11-30T03:31:47.707Z,101582.80
2022-11-30T03:36:50.584Z,101578.40
2022-11-30T03:41:53.511Z,101581.40
2022-11-30T03:46:56.697Z,101586.40
2022-11-30T03:51:59.572Z,101593.20
2022-11-30T03:57:02.475Z,101598.00
2022-11-30T04:02:05.471Z,101597.80
2022-11-30T04:07:08.588Z,101599.40
2022-11-30T04:12:11.547Z,101591.00
2022-11-30T04:17:14.453Z,101587.60
2022-11-30T04:22:17.356Z,101590.00
2022-11-30T04:27:20.276Z,101589.20
2022-11-30T04:32:23.210Z,101595.40
2022-11-30T04:37:26.126Z,101602.00
2022-11-30T04:42:29.173Z,101601.80
2022-11-30T04:47:32.063Z,101616.00
2022-11-30T04:52:35.858Z,101616.20
2022-11-30T04:57:38.982Z,101623.60
2022-11-30T05:02:42.143Z,101633.00
2022-11-30T05:07:49.027Z,101633.20
2022-11-30T05:12:52.559Z,101634.40
2022-11-30T05:18:01.455Z,101633.20
2022-11-30T05:23:04.427Z,101636.60
2022-11-30T05:28:07.373Z,101647.60
2022-11-30T05:33:11.085Z,101648.40
2022-11-30T05:38:14.033Z,101643.20
2022-11-30T05:43:19.003Z,101641.00
2022-11-30T05:48:22.022Z,101642.80
2022-11-30T05:53:24.934Z,101657.60
2022-11-30T05:58:28.367Z,101661.80
2022-11-30T06:03:34.793Z,101657.80
2022-11-30T06:08:37.900Z,101653.80
2022-11-30T06:13:41.177Z,101656.00
2022-11-30T06:18:44.151Z,101660.40
2022-11-30T06:23:47.074Z,101664.40
2022-11-30T06:28:50.018Z,101669.40
2022-11-30T06:33:56.695Z,101664.00
2022-11-30T06:38:59.639Z,101671.20
2022-11-30T06:44:02.690Z,101675.00
2022-11-30T06:49:06.360Z,101681.00
2022-11-30T06:54:09.379Z,101681.60
2022-11-30T06:59:13.374Z,101685.20
2022-11-30T07:04:16.337Z,101686.20
2022-11-30T07:09:19.406Z,101697.60
2022-11-30T07:14:22.358Z,101701.40
2022-11-30T07:19:25.269Z,101699.00
2022-11-30T07:24:47.210Z,101694.80
2022-11-30T07:29:52.890Z,101699.40
2022-11-30T07:34:55.799Z,101699.60
2022-11-30T07:39:58.742Z,101708.40
2022-11-30T07:45:01.636Z,101708.20
2022-11-30T07:50:05.476Z,101716.40
2022-11-30T07:55:09.595Z,101721.80
2022-11-30T08:00:13.377Z,101724.20
2022-11-30T08:05:16.604Z,101725.20
2022-11-30T08:10:23.795Z,101725.20
2022-11-30T08:15:32.382Z,101722.60
2022-11-30T08:20:36.409Z,101729.80
2022-11-30T08:25:39.472Z,101730.40
2022-11-30T08:30:42.473Z,101733.60
2022-11-30T08:35:45.519Z,101734.20
2022-11-30T08:40:48.406Z,101731.40
2022-11-30T08:51:17.737Z,101741.60
2022-11-30T08:56:25.447Z,101745.80
2022-11-30T09:01:31.394Z,101751.80
2022-11-30T09:06:35.977Z,101748.00
2022-11-30T09:11:38.952Z,101751.80
2022-11-30T09:16:41.910Z,101749.20
2022-11-30T09:21:51.161Z,101754.60
2022-11-30T09:26:58.396Z,101756.80
2022-11-30T09:32:01.282Z,101758.20
2022-11-30T09:37:04.251Z,101753.80
2022-11-30T09:42:28.821Z,101761.60
2022-11-30T09:47:53.578Z,101762.00
2022-11-30T09:53:03.897Z,101759.00
2022-11-30T09:58:23.738Z,101761.60
2022-11-30T10:03:26.785Z,101758.40
2022-11-30T10:09:01.407Z,101765.40
2022-11-30T10:15:08.485Z,101768.80
2022-11-30T10:20:39.351Z,101771.00
2022-11-30T10:26:01.614Z,101771.00
2022-11-30T10:31:06.972Z,101766.80
2022-11-30T10:36:33.645Z,101768.80
2022-11-30T10:41:50.912Z,101765.20
2022-11-30T10:47:19.071Z,101755.00
2022-11-30T10:52:44.100Z,101759.00
2022-11-30T10:57:51.242Z,101761.40
2022-11-30T11:02:54.263Z,101767.60
2022-11-30T11:08:16.998Z,101764.40
2022-11-30T11:13:43.680Z,101761.80
2022-11-30T11:18:58.088Z,101752.40
2022-11-30T11:24:10.856Z,101754.00
2022-11-30T11:29:32.160Z,101747.80
2022-11-30T11:34:37.299Z,101751.60
2022-11-30T11:39:40.363Z,101759.20
2022-11-30T11:44:43.396Z,101751.40
2022-11-30T11:49:48.291Z,101757.20
2022-11-30T11:55:02.602Z,101755.60
2022-11-30T12:00:20.299Z,101755.80
2022-11-30T12:05:38.340Z,101760.80
2022-11-30T12:11:00.909Z,101763.40
2022-11-30T12:16:42.879Z,101765.40
2022-11-30T12:22:27.523Z,101764.80
2022-11-30T12:27:58.186Z,101765.20
2022-11-30T12:33:31.746Z,101762.20
2022-11-30T12:38:46.869Z,101766.20
2022-11-30T12:44:08.155Z,101772.20
2022-11-30T12:49:55.649Z,101767.20
2022-11-30T12:55:30.765Z,101772.40
2022-11-30T13:01:08.293Z,101771.60
2022-11-30T13:06:39.191Z,101775.60
2022-11-30T13:11:56.834Z,101773.80
2022-11-30T13:17:19.552Z,101772.60
2022-11-30T13:22:47.927Z,101772.60
2022-11-30T13:28:26.124Z,101768.20
2022-11-30T13:33:35.265Z,101766.80
2022-11-30T13:38:38.562Z,101766.40
2022-11-30T13:43:48.307Z,101768.60
2022-11-30T13:49:21.372Z,101773.20
2022-11-30T13:54:48.546Z,101777.00
2022-11-30T13:59:58.100Z,101783.00
2022-11-30T14:05:41.391Z,101784.20
2022-11-30T14:10:51.015Z,101783.00
2022-11-30T14:16:00.908Z,101787.60
2022-11-30T14:21:16.043Z,101784.20
2022-11-30T14:26:38.613Z,101783.80
2022-11-30T14:32:12.705Z,101777.80
2022-11-30T14:37:23.584Z,101784.60
2022-11-30T14:42:33.586Z,101780.80
2022-11-30T14:47:36.676Z,101780.00
2022-11-30T14:53:02.651Z,101781.80
2022-11-30T14:58:47.143Z,101775.60
2022-11-30T15:03:54.860Z,101786.80
2022-11-30T15:09:01.488Z,101784.40
2022-11-30T15:14:11.788Z,101777.00
2022-11-30T15:19:28.856Z,101772.60
2022-11-30T15:24:32.130Z,101781.80
2022-11-30T15:29:52.652Z,101782.60
2022-11-30T15:35:01.117Z,101775.80
2022-11-30T15:40:10.921Z,101773.40
2022-11-30T15:45:36.075Z,101780.60
2022-11-30T15:50:41.588Z,101784.40
2022-11-30T15:55:54.591Z,101777.80
2022-11-30T16:01:05.803Z,101782.80
2022-11-30T16:06:20.453Z,101792.60
2022-11-30T16:11:25.095Z,101790.80
2022-11-30T16:16:33.164Z,101790.20
2022-11-30T16:21:36.998Z,101794.80
2022-11-30T16:26:51.088Z,101798.80
2022-11-30T16:31:56.187Z,101795.20
2022-11-30T16:36:59.755Z,101800.20
2022-11-30T16:42:03.164Z,101797.20
2022-11-30T16:47:06.864Z,101802.60
2022-11-30T16:52:17.447Z,101805.40
2022-11-30T16:57:20.451Z,101808.80
2022-11-30T17:02:24.816Z,101816.00
2022-11-30T17:07:28.266Z,101813.40
2022-11-30T17:12:31.922Z,101807.20
2022-11-30T17:17:34.926Z,101800.80
2022-11-30T17:22:38.938Z,101803.20
2022-11-30T17:27:42.284Z,101803.60
2022-11-30T17:32:45.476Z,101804.40
2022-11-30T17:37:48.932Z,101796.40
2022-11-30T17:42:52.369Z,101798.60
2022-11-30T17:47:55.269Z,101797.20
2022-11-30T17:52:58.380Z,101801.20
2022-11-30T17:58:05.097Z,101811.60
2022-11-30T18:03:18.665Z,101819.40
2022-11-30T18:08:21.879Z,101823.00
2022-11-30T18:13:25.007Z,101832.00
2022-11-30T18:18:27.947Z,101834.80
2022-11-30T18:23:35.057Z,101838.20
2022-11-30T18:28:38.720Z,101837.60
2022-11-30T18:33:41.886Z,101837.60
2022-11-30T18:38:45.221Z,101839.40
2022-11-30T18:43:48.468Z,101847.00
2022-11-30T18:48:53.104Z,101848.60
2022-11-30T18:53:59.509Z,101853.60
2022-11-30T18:59:09.077Z,101857.40
2022-11-30T19:04:12.823Z,101861.00
2022-11-30T19:09:19.721Z,101870.20
2022-11-30T19:14:24.887Z,101872.00
2022-11-30T19:19:28.950Z,101858.60
2022-11-30T19:24:33.053Z,101860.80
2022-11-30T19:29:37.709Z,101864.40
2022-11-30T19:34:42.073Z,101867.40
2022-11-30T19:39:48.040Z,101864.60
2022-11-30T19:44:52.263Z,101872.20
2022-11-30T19:49:56.303Z,101876.60
2022-11-30T19:55:00.414Z,101875.80
2022-11-30T20:00:11.407Z,101882.20
2022-11-30T20:05:16.888Z,101878.80
2022-11-30T20:10:20.952Z,101880.60
2022-11-30T20:15:24.424Z,101882.40
2022-11-30T20:20:28.426Z,101884.00
2022-11-30T20:25:34.372Z,101883.20
2022-11-30T20:30:38.274Z,101874.80
2022-11-30T20:35:41.589Z,101886.60
2022-11-30T20:40:47.656Z,101892.20
2022-11-30T20:45:50.741Z,101885.00
2022-11-30T20:51:22.240Z,101881.40
2022-11-30T20:56:17.888Z,101893.60
2022-11-30T21:01:23.105Z,101891.00
2022-11-30T21:06:28.023Z,101889.40
2022-11-30T21:11:31.610Z,101895.80
2022-11-30T21:16:35.851Z,101893.20
2022-11-30T21:21:39.049Z,101891.80
2022-11-30T21:26:43.623Z,101892.00
2022-11-30T21:31:46.790Z,101898.20
2022-11-30T21:36:52.168Z,101900.00
2022-11-30T21:41:55.462Z,101893.20
2022-11-30T21:46:58.393Z,101896.40
2022-11-30T21:52:01.356Z,101886.00
2022-11-30T21:57:04.298Z,101889.40
2022-11-30T22:02:09.026Z,101886.60
2022-11-30T22:07:13.676Z,101895.80
2022-11-30T22:12:16.978Z,101890.80
2022-11-30T22:17:19.900Z,101888.80
2022-11-30T22:22:22.896Z,101891.40
2022-11-30T22:27:26.061Z,101883.40
2022-11-30T22:32:29.122Z,101883.60
2022-11-30T22:37:32.122Z,101884.20
2022-11-30T22:42:35.931Z,101887.20
2022-11-30T22:47:38.863Z,101887.20
2022-11-30T22:53:02.445Z,101893.40
2022-11-30T22:58:04.970Z,101887.00
2022-11-30T23:03:08.038Z,101893.40
2022-11-30T23:08:11.124Z,101881.60
2022-11-30T23:13:14.123Z,101889.40
2022-11-30T23:18:17.937Z,101897.40
2022-11-30T23:23:22.543Z,101888.20
2022-11-30T23:28:25.573Z,101887.60
2022-11-30T23:33:28.464Z,101883.80
2022-11-30T23:38:32.368Z,101882.60
2022-11-30T23:43:37.235Z,101880.80
2022-11-30T23:48:40.252Z,101881.40
2022-11-30T23:53:44.050Z,101877.40
2022-11-30T23:58:47.260Z,101877.40
